Time;durP1;ratioP1;P1;durP2;ratioP2;P2;SDS_P1;SDS_P2;PMS_P1;PMS_P2;Temp;Humidity;BMP_temperature;BMP_pressure;BME280_temperature;BME280_humidity;BME280_pressure;Samples;Min_cycle;Max_cycle;Signal;HPM_P1;HPM_P2
2023/03/08 00:02:11;;;;;;;;;;;;;;;;;;4999686;28;119242;-69
2023/03/08 00:07:28;;;;;;;;;;;;;;;;;;5153030;22;89005;-72
2023/03/08 00:16:13;;;;;;;;;;;;;;;;;;4931312;28;89862;-69
2023/03/08 00:18:39;;;;;;;;;;;;;;;;;;4920999;28;118702;-69
2023/03/08 00:21:06;;;;;;;;;;;;;;;;;;4905910;28;113941;-69
2023/03/08 00:23:32;;;;;;;;;;;;;;;;;;4926683;28;118917;-69
2023/03/08 00:25:58;;;;;;;;;;;;;;;;;;4920931;28;119474;-69
2023/03/08 00:28:24;;;;;;;;;;;;;;;;;;4938417;28;114066;-69
2023/03/08 00:30:50;;;;;;;;;;;;;;;;;;4940018;28;119022;-69
2023/03/08 00:33:17;;;;;;;;;;;;;;;;;;4921605;28;119643;-69
2023/03/08 00:35:43;;;;;;;;;;;;;;;;;;4932731;28;118823;-69
2023/03/08 00:38:09;;;;;;;;;;;;;;;;;;4925718;28;119195;-69
2023/03/08 00:40:35;;;;;;;;;;;;;;;;;;4939301;28;113651;-69
2023/03/08 00:43:01;;;;;;;;;;;;;;;;;;4938336;28;119204;-70
2023/03/08 00:45:28;;;;;;;;;;;;;;;;;;4910869;28;119737;-69
2023/03/08 00:47:54;;;;;;;;;;;;;;;;;;4911384;28;113866;-69
2023/03/08 00:50:20;;;;;;;;;;;;;;;;;;4926442;28;120348;-69
2023/03/08 00:52:46;;;;;;;;;;;;;;;;;;4938465;28;117919;-69
2023/03/08 00:55:12;;;;;;;;;;;;;;;;;;4940980;28;114612;-69
2023/03/08 00:57:38;;;;;;;;;;;;;;;;;;4937970;28;119586;-69
2023/03/08 01:00:07;;;;;;;;;;;;;;;;;;4931582;28;114642;-69
2023/03/08 01:02:33;;;;;;;;;;;;;;;;;;4936185;28;118337;-69
2023/03/08 01:04:59;;;;;;;;;;;;;;;;;;4938506;28;118381;-69
2023/03/08 01:07:27;;;;;;;;;;;;;;;;;;4909256;28;115041;-70
2023/03/08 01:09:54;;;;;;;;;;;;;;;;;;4900799;28;119935;-69
2023/03/08 01:12:21;;;;;;;;;;;;;;;;;;4901068;28;120197;-69
2023/03/08 01:14:47;;;;;;;;;;;;;;;;;;4919062;28;114941;-69
2023/03/08 01:17:14;;;;;;;;;;;;;;;;;;4908078;28;119042;-69
2023/03/08 01:19:40;;;;;;;;;;;;;;;;;;4900798;28;112507;-68
2023/03/08 01:22:06;;;;;;;;;;;;;;;;;;4907254;28;119267;-69
2023/03/08 01:24:32;;;;;;;;;;;;;;;;;;4892780;28;119042;-69
2023/03/08 01:26:59;;;;;;;;;;;;;;;;;;4910477;28;112589;-69
2023/03/08 01:29:26;;;;;;;;;;;;;;;;;;4912254;28;118956;-69
2023/03/08 01:31:52;;;;;;;;;;;;;;;;;;4917050;28;118921;-69
2023/03/08 01:34:18;;;;;;;;;;;;;;;;;;4918908;28;114159;-69
2023/03/08 01:36:44;;;;;;;;;;;;;;;;;;4918477;28;119147;-72
2023/03/08 01:39:10;;;;;;;;;;;;;;;;;;4915627;28;119597;-72
2023/03/08 01:41:36;;;;;;;;;;;;;;;;;;4918486;28;119013;-72
2023/03/08 01:44:03;;;;;;;;;;;;;;;;;;4912061;28;120348;-72
2023/03/08 01:46:29;;;;;;;;;;;;;;;;;;4916605;28;113811;-71
2023/03/08 01:48:55;;;;;;;;;;;;;;;;;;4917900;28;119064;-72
2023/03/08 01:51:21;;;;;;;;;;;;;;;;;;4888656;28;119743;-71
2023/03/08 01:53:48;;;;;;;;;;;;;;;;;;4917850;28;114045;-71
2023/03/08 01:56:14;;;;;;;;;;;;;;;;;;4906848;28;119223;-71
2023/03/08 01:58:40;;;;;;;;;;;;;;;;;;4900153;28;119506;-71
2023/03/08 02:01:06;;;;;;;;;;;;;;;;;;4903540;28;112518;-71
2023/03/08 02:03:32;;;;;;;;;;;;;;;;;;4918292;28;119798;-71
2023/03/08 02:05:59;;;;;;;;;;;;;;;;;;4901408;28;114027;-71
2023/03/08 02:08:25;;;;;;;;;;;;;;;;;;4919311;28;119834;-71
2023/03/08 02:10:51;;;;;;;;;;;;;;;;;;4913799;28;119842;-71
2023/03/08 02:13:17;;;;;;;;;;;;;;;;;;4916922;28;114785;-71
2023/03/08 02:15:43;;;;;;;;;;;;;;;;;;4921088;28;118247;-71
2023/03/08 02:18:10;;;;;;;;;;;;;;;;;;4921287;28;119785;-71
2023/03/08 02:20:36;;;;;;;;;;;;;;;;;;4924009;28;114572;-71
2023/03/08 02:23:02;;;;;;;;;;;;;;;;;;4912408;28;119506;-70
2023/03/08 02:25:28;;;;;;;;;;;;;;;;;;4920887;28;112878;-71
2023/03/08 02:27:54;;;;;;;;;;;;;;;;;;4920759;28;119517;-71
2023/03/08 02:30:21;;;;;;;;;;;;;;;;;;4903177;28;120184;-71
2023/03/08 02:32:47;;;;;;;;;;;;;;;;;;4903394;28;114076;-71
2023/03/08 02:35:13;;;;;;;;;;;;;;;;;;4920668;28;119280;-72
2023/03/08 02:37:39;;;;;;;;;;;;;;;;;;4920226;28;119145;-72
2023/03/08 02:40:06;;;;;;;;;;;;;;;;;;4904640;28;114107;-71
2023/03/08 02:42:32;;;;;;;;;;;;;;;;;;4907035;28;119172;-72
2023/03/08 02:44:58;;;;;;;;;;;;;;;;;;4921017;28;114803;-72
2023/03/08 02:47:24;;;;;;;;;;;;;;;;;;4911246;28;120060;-72
2023/03/08 02:49:50;;;;;;;;;;;;;;;;;;4902278;28;120284;-72
2023/03/08 02:52:16;;;;;;;;;;;;;;;;;;4900292;28;112734;-72
2023/03/08 02:54:43;;;;;;;;;;;;;;;;;;4897144;28;118998;-71
2023/03/08 02:57:09;;;;;;;;;;;;;;;;;;4917058;28;117985;-72
2023/03/08 02:59:35;;;;;;;;;;;;;;;;;;4920443;28;114148;-72
2023/03/08 03:02:01;;;;;;;;;;;;;;;;;;4919483;28;118809;-72
2023/03/08 03:04:28;;;;;;;;;;;;;;;;;;4922984;28;118710;-72
2023/03/08 03:06:54;;;;;;;;;;;;;;;;;;4892021;28;119114;-72
2023/03/08 03:09:20;;;;;;;;;;;;;;;;;;4919050;28;119232;-72
2023/03/08 03:11:46;;;;;;;;;;;;;;;;;;4920656;28;113268;-72
2023/03/08 03:14:12;;;;;;;;;;;;;;;;;;4919661;28;118834;-72
2023/03/08 03:16:39;;;;;;;;;;;;;;;;;;4898004;28;119606;-71
2023/03/08 03:19:05;;;;;;;;;;;;;;;;;;4919603;28;114942;-72
2023/03/08 03:21:31;;;;;;;;;;;;;;;;;;4918372;28;119251;-71
2023/03/08 03:23:57;;;;;;;;;;;;;;;;;;4920055;28;119619;-72
2023/03/08 03:26:24;;;;;;;;;;;;;;;;;;4903631;28;113945;-72
2023/03/08 03:28:53;;;;;;;;;;;;;;;;;;4902620;28;119587;-71
2023/03/08 03:31:19;;;;;;;;;;;;;;;;;;4920488;28;112641;-72
2023/03/08 03:33:45;;;;;;;;;;;;;;;;;;4919443;28;119102;-72
2023/03/08 03:36:12;;;;;;;;;;;;;;;;;;4902754;28;120276;-71
2023/03/08 03:38:38;;;;;;;;;;;;;;;;;;4920321;28;114717;-71
2023/03/08 03:41:04;;;;;;;;;;;;;;;;;;4903316;28;118799;-69
2023/03/08 03:43:30;;;;;;;;;;;;;;;;;;4920207;28;119716;-68
2023/03/08 03:45:57;;;;;;;;;;;;;;;;;;4920562;28;113954;-69
2023/03/08 03:48:23;;;;;;;;;;;;;;;;;;4920889;28;119645;-69
2023/03/08 03:50:49;;;;;;;;;;;;;;;;;;4919893;28;113970;-68
2023/03/08 03:53:15;;;;;;;;;;;;;;;;;;4919572;28;118318;-69
2023/03/08 03:55:41;;;;;;;;;;;;;;;;;;4895475;28;120212;-68
2023/03/08 03:58:08;;;;;;;;;;;;;;;;;;4915447;28;114118;-68
2023/03/08 04:00:34;;;;;;;;;;;;;;;;;;4917314;28;118594;-68
2023/03/08 04:03:00;;;;;;;;;;;;;;;;;;4920024;28;118397;-69
2023/03/08 04:05:26;;;;;;;;;;;;;;;;;;4919306;28;112382;-68
2023/03/08 04:07:53;;;;;;;;;;;;;;;;;;4919142;28;118613;-69
2023/03/08 04:10:19;;;;;;;;;;;;;;;;;;4923174;28;120433;-68
2023/03/08 04:12:45;;;;;;;;;;;;;;;;;;4902599;28;119545;-69
2023/03/08 04:15:11;;;;;;;;;;;;;;;;;;4903222;28;118882;-69
2023/03/08 04:17:37;;;;;;;;;;;;;;;;;;4918419;28;114054;-68
2023/03/08 04:20:05;;;;;;;;;;;;;;;;;;4899079;28;119526;-68
2023/03/08 04:22:31;;;;;;;;;;;;;;;;;;4916551;28;120447;-68
2023/03/08 04:24:57;;;;;;;;;;;;;;;;;;4897705;28;114053;-68
2023/03/08 04:27:23;;;;;;;;;;;;;;;;;;4919703;28;118882;-69
2023/03/08 04:29:49;;;;;;;;;;;;;;;;;;4916859;28;115923;-69
2023/03/08 04:32:16;;;;;;;;;;;;;;;;;;4888259;28;119488;-69
2023/03/08 04:34:42;;;;;;;;;;;;;;;;;;4917882;28;119895;-70
2023/03/08 04:37:08;;;;;;;;;;;;;;;;;;4902478;28;114097;-69
2023/03/08 04:39:34;;;;;;;;;;;;;;;;;;4919412;28;117577;-70
2023/03/08 04:42:00;;;;;;;;;;;;;;;;;;4918273;28;119710;-69
2023/03/08 04:44:27;;;;;;;;;;;;;;;;;;4909860;28;112364;-69
2023/03/08 04:46:53;;;;;;;;;;;;;;;;;;4897693;28;119564;-69
2023/03/08 04:49:19;;;;;;;;;;;;;;;;;;4913264;28;119719;-69
2023/03/08 04:51:45;;;;;;;;;;;;;;;;;;4930411;28;112671;-70
2023/03/08 04:54:12;;;;;;;;;;;;;;;;;;4918737;28;119866;-69
2023/03/08 04:56:38;;;;;;;;;;;;;;;;;;4924211;28;112793;-69
2023/03/08 04:59:04;;;;;;;;;;;;;;;;;;4901124;28;119208;-69
2023/03/08 05:01:30;;;;;;;;;;;;;;;;;;4901457;28;119707;-69
2023/03/08 05:03:56;;;;;;;;;;;;;;;;;;4916389;28;114682;-70
2023/03/08 05:06:23;;;;;;;;;;;;;;;;;;4917653;28;118249;-69
2023/03/08 05:08:49;;;;;;;;;;;;;;;;;;4918490;28;119816;-70
2023/03/08 05:11:15;;;;;;;;;;;;;;;;;;4901089;28;112816;-69
2023/03/08 05:13:41;;;;;;;;;;;;;;;;;;4894789;28;119721;-70
2023/03/08 05:16:07;;;;;;;;;;;;;;;;;;4902270;28;114166;-70
2023/03/08 05:18:34;;;;;;;;;;;;;;;;;;4904481;28;118959;-69
2023/03/08 05:21:00;;;;;;;;;;;;;;;;;;4912964;28;120191;-69
2023/03/08 05:23:26;;;;;;;;;;;;;;;;;;4916222;28;114489;-69
2023/03/08 05:25:53;;;;;;;;;;;;;;;;;;4918604;28;118039;-69
2023/03/08 05:28:19;;;;;;;;;;;;;;;;;;4918502;28;118823;-69
2023/03/08 05:30:46;;;;;;;;;;;;;;;;;;4901220;28;113823;-70
2023/03/08 05:33:12;;;;;;;;;;;;;;;;;;4919317;28;119188;-69
2023/03/08 05:35:38;;;;;;;;;;;;;;;;;;4895086;28;120219;-70
2023/03/08 05:38:04;;;;;;;;;;;;;;;;;;4915278;28;120460;-69
2023/03/08 05:40:31;;;;;;;;;;;;;;;;;;4918874;28;118323;-70
2023/03/08 05:42:57;;;;;;;;;;;;;;;;;;4917577;28;114023;-69
2023/03/08 05:45:23;;;;;;;;;;;;;;;;;;4919495;28;117571;-70
2023/03/08 05:47:49;;;;;;;;;;;;;;;;;;4914433;28;119831;-70
2023/03/08 05:50:15;;;;;;;;;;;;;;;;;;4923151;28;114111;-69
2023/03/08 05:52:42;;;;;;;;;;;;;;;;;;4906122;28;118823;-69
2023/03/08 05:55:08;;;;;;;;;;;;;;;;;;4903599;28;119726;-70
2023/03/08 05:57:35;;;;;;;;;;;;;;;;;;4906503;28;113723;-69
2023/03/08 06:00:03;;;;;;;;;;;;;;;;;;4911575;28;121200;-70
2023/03/08 06:02:29;;;;;;;;;;;;;;;;;;4909129;28;113819;-69
2023/03/08 06:04:55;;;;;;;;;;;;;;;;;;4920078;28;118950;-69
2023/03/08 06:07:21;;;;;;;;;;;;;;;;;;4922202;28;119508;-69
2023/03/08 06:09:50;;;;;;;;;;;;;;;;;;4905583;28;113854;-70
2023/03/08 06:12:16;;;;;;;;;;;;;;;;;;4922556;28;119177;-70
2023/03/08 06:14:43;;;;;;;;;;;;;;;;;;4905194;28;120365;-70
2023/03/08 06:17:09;;;;;;;;;;;;;;;;;;4913097;28;112538;-69
2023/03/08 06:19:35;;;;;;;;;;;;;;;;;;4918446;28;118765;-69
2023/03/08 06:22:01;;;;;;;;;;;;;;;;;;4896938;28;114064;-70
2023/03/08 06:24:27;;;;;;;;;;;;;;;;;;4909524;28;117605;-69
2023/03/08 06:26:55;;;;;;;;;;;;;;;;;;4920334;28;119614;-69
2023/03/08 06:29:21;;;;;;;;;;;;;;;;;;4915491;28;113849;-70
2023/03/08 06:31:47;;;;;;;;;;;;;;;;;;4902975;28;117280;-69
2023/03/08 06:34:13;;;;;;;;;;;;;;;;;;4899789;28;119741;-69
2023/03/08 06:36:40;;;;;;;;;;;;;;;;;;4919322;28;112777;-70
2023/03/08 06:39:09;;;;;;;;;;;;;;;;;;4923373;28;117355;-70
2023/03/08 06:41:35;;;;;;;;;;;;;;;;;;4904532;28;112657;-69
2023/03/08 06:44:01;;;;;;;;;;;;;;;;;;4903942;28;118213;-70
2023/03/08 06:46:27;;;;;;;;;;;;;;;;;;4919737;28;119847;-70
2023/03/08 06:48:54;;;;;;;;;;;;;;;;;;4898118;28;112774;-69
2023/03/08 06:51:21;;;;;;;;;;;;;;;;;;4914642;28;119695;-69
2023/03/08 06:53:47;;;;;;;;;;;;;;;;;;4921362;28;120223;-69
2023/03/08 06:56:13;;;;;;;;;;;;;;;;;;4920671;28;114199;-70
2023/03/08 06:58:39;;;;;;;;;;;;;;;;;;4921130;28;116221;-69
2023/03/08 07:01:08;;;;;;;;;;;;;;;;;;4919591;28;119687;-69
2023/03/08 07:03:34;;;;;;;;;;;;;;;;;;4904157;28;119833;-69
2023/03/08 07:06:01;;;;;;;;;;;;;;;;;;4904073;28;117144;-69
2023/03/08 07:08:27;;;;;;;;;;;;;;;;;;4919650;28;114416;-69
2023/03/08 07:10:53;;;;;;;;;;;;;;;;;;4921329;28;119306;-69
2023/03/08 07:13:22;;;;;;;;;;;;;;;;;;4902865;28;120974;-69
2023/03/08 07:15:48;;;;;;;;;;;;;;;;;;4921063;28;114912;-69
2023/03/08 07:18:14;;;;;;;;;;;;;;;;;;4920031;28;119025;-69
2023/03/08 07:20:41;;;;;;;;;;;;;;;;;;4904000;28;120209;-69
2023/03/08 07:23:07;;;;;;;;;;;;;;;;;;4922816;28;112679;-69
2023/03/08 07:25:34;;;;;;;;;;;;;;;;;;4914157;28;119889;-69
2023/03/08 07:28:00;;;;;;;;;;;;;;;;;;4920932;28;114029;-69
2023/03/08 07:30:26;;;;;;;;;;;;;;;;;;4921228;28;118979;-69
2023/03/08 07:32:52;;;;;;;;;;;;;;;;;;4920929;28;118317;-72
2023/03/08 07:35:19;;;;;;;;;;;;;;;;;;4921373;28;114320;-72
2023/03/08 07:37:45;;;;;;;;;;;;;;;;;;4889921;28;118730;-71
2023/03/08 07:40:11;;;;;;;;;;;;;;;;;;4920159;28;119923;-72
2023/03/08 07:42:37;;;;;;;;;;;;;;;;;;4920017;28;114167;-72
2023/03/08 07:45:03;;;;;;;;;;;;;;;;;;4907448;28;118925;-72
2023/03/08 07:47:30;;;;;;;;;;;;;;;;;;4903399;28;113949;-68
2023/03/08 07:49:56;;;;;;;;;;;;;;;;;;4913755;28;118963;-69
2023/03/08 07:52:22;;;;;;;;;;;;;;;;;;4912920;28;119737;-68
2023/03/08 07:54:48;;;;;;;;;;;;;;;;;;4920547;28;114629;-68
2023/03/08 07:57:15;;;;;;;;;;;;;;;;;;4892541;28;118321;-68
2023/03/08 07:59:41;;;;;;;;;;;;;;;;;;4893396;28;119696;-69
2023/03/08 08:02:07;;;;;;;;;;;;;;;;;;4919557;28;112151;-69
2023/03/08 08:04:33;;;;;;;;;;;;;;;;;;4919539;28;119685;-68
2023/03/08 08:06:59;;;;;;;;;;;;;;;;;;4921437;28;119762;-68
2023/03/08 08:09:26;;;;;;;;;;;;;;;;;;4916491;28;119139;-69
2023/03/08 08:11:52;;;;;;;;;;;;;;;;;;4920312;28;120312;-70
2023/03/08 08:14:18;;;;;;;;;;;;;;;;;;4920105;28;112652;-68
2023/03/08 08:16:44;;;;;;;;;;;;;;;;;;4911985;28;118946;-70
2023/03/08 08:19:11;;;;;;;;;;;;;;;;;;4920670;28;118973;-68
2023/03/08 08:21:37;;;;;;;;;;;;;;;;;;4919628;28;112816;-68
2023/03/08 08:24:03;;;;;;;;;;;;;;;;;;4920171;28;118645;-68
2023/03/08 08:26:30;;;;;;;;;;;;;;;;;;4901294;28;120042;-68
2023/03/08 08:28:56;;;;;;;;;;;;;;;;;;4923092;28;89057;-68
2023/03/08 08:31:22;;;;;;;;;;;;;;;;;;4897250;28;119772;-67
2023/03/08 08:33:48;;;;;;;;;;;;;;;;;;4915168;28;113989;-67
2023/03/08 08:36:15;;;;;;;;;;;;;;;;;;4918138;28;118971;-67
2023/03/08 08:38:47;;;;;;;;;;;;;;;;;;4896812;28;118615;-69
2023/03/08 08:41:16;;;;;;;;;;;;;;;;;;4910950;28;113883;-67
2023/03/08 08:43:43;;;;;;;;;;;;;;;;;;4920402;28;119050;-67
2023/03/08 08:46:09;;;;;;;;;;;;;;;;;;4918208;28;119914;-68
2023/03/08 08:48:37;;;;;;;;;;;;;;;;;;4919789;28;114195;-68
2023/03/08 08:51:03;;;;;;;;;;;;;;;;;;4891212;28;121147;-67
2023/03/08 08:53:29;;;;;;;;;;;;;;;;;;4898310;28;113951;-66
2023/03/08 08:55:55;;;;;;;;;;;;;;;;;;4925458;28;119197;-68
2023/03/08 08:58:22;;;;;;;;;;;;;;;;;;4922984;28;120278;-67
2023/03/08 09:00:48;;;;;;;;;;;;;;;;;;4910023;28;114080;-67
2023/03/08 09:03:14;;;;;;;;;;;;;;;;;;4910535;28;119406;-66
2023/03/08 09:05:40;;;;;;;;;;;;;;;;;;4888841;28;118404;-66
2023/03/08 09:08:07;;;;;;;;;;;;;;;;;;4912871;28;112725;-71
2023/03/08 09:10:34;;;;;;;;;;;;;;;;;;4904170;28;118429;-74
2023/03/08 09:13:00;;;;;;;;;;;;;;;;;;4919315;28;112357;-72
2023/03/08 09:15:26;;;;;;;;;;;;;;;;;;4915816;28;117846;-72
2023/03/08 09:17:52;;;;;;;;;;;;;;;;;;4916151;28;118546;-73
2023/03/08 09:20:18;;;;;;;;;;;;;;;;;;4919556;28;114061;-72
2023/03/08 09:22:48;;;;;;;;;;;;;;;;;;4917752;28;118531;-72
2023/03/08 09:25:14;;;;;;;;;;;;;;;;;;4919762;28;119755;-72
2023/03/08 09:27:40;;;;;;;;;;;;;;;;;;4902411;28;113943;-71
2023/03/08 09:30:08;;;;;;;;;;;;;;;;;;4900668;28;101754;-73
2023/03/08 09:32:35;;;;;;;;;;;;;;;;;;4911277;28;118873;-73
2023/03/08 09:35:01;;;;;;;;;;;;;;;;;;4918134;28;116852;-70
2023/03/08 09:37:27;;;;;;;;;;;;;;;;;;4919217;28;119934;-71
2023/03/08 09:39:53;;;;;;;;;;;;;;;;;;4906590;28;112602;-70
2023/03/08 09:42:21;;;;;;;;;;;;;;;;;;4915100;28;120139;-70
2023/03/08 09:44:47;;;;;;;;;;;;;;;;;;4885860;28;118325;-72
2023/03/08 09:47:13;;;;;;;;;;;;;;;;;;4914565;28;112886;-71
2023/03/08 09:49:40;;;;;;;;;;;;;;;;;;4911251;28;119538;-72
2023/03/08 09:52:06;;;;;;;;;;;;;;;;;;4918064;28;118709;-72
2023/03/08 09:54:32;;;;;;;;;;;;;;;;;;4922656;28;112566;-72
2023/03/08 09:56:58;;;;;;;;;;;;;;;;;;4917329;28;118532;-71
2023/03/08 09:59:25;;;;;;;;;;;;;;;;;;4918664;28;113420;-73
2023/03/08 10:01:51;;;;;;;;;;;;;;;;;;4917805;28;119037;-71
2023/03/08 10:04:17;;;;;;;;;;;;;;;;;;4882501;28;120591;-72
2023/03/08 10:06:43;;;;;;;;;;;;;;;;;;4882221;28;111525;-72
2023/03/08 10:09:09;;;;;;;;;;;;;;;;;;4900195;28;119298;-71
2023/03/08 10:11:36;;;;;;;;;;;;;;;;;;4905287;28;118272;-71
2023/03/08 10:14:02;;;;;;;;;;;;;;;;;;4905969;28;114142;-71
2023/03/08 10:16:28;;;;;;;;;;;;;;;;;;4892521;28;117203;-71
2023/03/08 10:18:55;;;;;;;;;;;;;;;;;;4899951;28;113684;-72
2023/03/08 10:21:21;;;;;;;;;;;;;;;;;;4910793;28;117754;-70
2023/03/08 10:23:50;;;;;;;;;;;;;;;;;;4918087;28;118553;-69
2023/03/08 10:26:17;;;;;;;;;;;;;;;;;;4901153;28;112036;-69
2023/03/08 10:28:43;;;;;;;;;;;;;;;;;;4918564;28;119349;-67
2023/03/08 10:31:09;;;;;;;;;;;;;;;;;;4918839;28;119451;-68
2023/03/08 10:33:36;;;;;;;;;;;;;;;;;;4909902;28;114310;-68
2023/03/08 10:36:03;;;;;;;;;;;;;;;;;;4888827;28;119130;-69
2023/03/08 10:38:29;;;;;;;;;;;;;;;;;;4903064;28;114042;-73
2023/03/08 10:40:55;;;;;;;;;;;;;;;;;;4888239;28;118835;-70
2023/03/08 10:43:21;;;;;;;;;;;;;;;;;;4910771;28;119647;-71
2023/03/08 10:45:48;;;;;;;;;;;;;;;;;;4906319;28;114111;-71
2023/03/08 10:48:14;;;;;;;;;;;;;;;;;;4902995;28;118360;-72
2023/03/08 10:50:40;;;;;;;;;;;;;;;;;;4907667;28;119512;-71
2023/03/08 10:53:06;;;;;;;;;;;;;;;;;;4900873;28;113964;-72
2023/03/08 10:55:32;;;;;;;;;;;;;;;;;;4921770;28;119953;-72
2023/03/08 10:57:59;;;;;;;;;;;;;;;;;;4924230;28;119613;-72
2023/03/08 11:00:28;;;;;;;;;;;;;;;;;;4917434;28;118818;-71
2023/03/08 11:02:54;;;;;;;;;;;;;;;;;;4921536;28;117864;-72
2023/03/08 11:05:20;;;;;;;;;;;;;;;;;;4921312;28;114123;-71
2023/03/08 11:07:47;;;;;;;;;;;;;;;;;;4903183;28;118958;-72
2023/03/08 11:10:13;;;;;;;;;;;;;;;;;;4904123;28;118889;-73
2023/03/08 11:12:39;;;;;;;;;;;;;;;;;;4922120;28;112437;-72
2023/03/08 11:15:05;;;;;;;;;;;;;;;;;;4893517;28;119197;-71
2023/03/08 11:17:34;;;;;;;;;;;;;;;;;;4908356;28;120604;-71
2023/03/08 11:20:00;;;;;;;;;;;;;;;;;;4924470;28;114492;-70
2023/03/08 11:22:27;;;;;;;;;;;;;;;;;;4890559;28;118251;-70
2023/03/08 11:24:53;;;;;;;;;;;;;;;;;;4902192;28;114501;-71
2023/03/08 11:27:19;;;;;;;;;;;;;;;;;;4904037;28;119673;-72
2023/03/08 11:29:45;;;;;;;;;;;;;;;;;;4895769;28;118768;-72
2023/03/08 11:32:12;;;;;;;;;;;;;;;;;;4902399;28;113895;-71
2023/03/08 11:34:38;;;;;;;;;;;;;;;;;;4902670;28;119205;-73
2023/03/08 11:37:04;;;;;;;;;;;;;;;;;;4915689;28;119077;-72
2023/03/08 11:39:30;;;;;;;;;;;;;;;;;;4917397;28;114106;-71
2023/03/08 11:41:57;;;;;;;;;;;;;;;;;;4905245;28;119026;-71
2023/03/08 11:44:23;;;;;;;;;;;;;;;;;;4919123;28;114474;-72
2023/03/08 11:46:49;;;;;;;;;;;;;;;;;;4921294;28;119106;-71
2023/03/08 11:49:15;;;;;;;;;;;;;;;;;;4914194;28;119732;-71
2023/03/08 11:51:41;;;;;;;;;;;;;;;;;;4902033;28;113875;-71
2023/03/08 11:54:07;;;;;;;;;;;;;;;;;;4888983;28;119180;-69
2023/03/08 11:56:34;;;;;;;;;;;;;;;;;;4915648;28;119921;-69
2023/03/08 11:59:00;;;;;;;;;;;;;;;;;;4921003;28;113870;-69
2023/03/08 12:01:26;;;;;;;;;;;;;;;;;;4901848;28;117873;-67
2023/03/08 12:03:52;;;;;;;;;;;;;;;;;;4923280;28;119562;-67
2023/03/08 12:06:19;;;;;;;;;;;;;;;;;;4919510;28;118641;-67
2023/03/08 12:08:54;;;;;;;;;;;;;;;;;;4903274;28;119695;-67
2023/03/08 12:11:20;;;;;;;;;;;;;;;;;;4913664;28;114178;-66
2023/03/08 12:13:46;;;;;;;;;;;;;;;;;;4910861;28;119020;-66
2023/03/08 12:16:13;;;;;;;;;;;;;;;;;;4918812;28;118079;-67
2023/03/08 12:18:39;;;;;;;;;;;;;;;;;;4933604;28;114061;-69
2023/03/08 12:21:05;;;;;;;;;;;;;;;;;;4939851;28;117659;-66
2023/03/08 12:23:31;;;;;;;;;;;;;;;;;;4940539;28;118782;-67
2023/03/08 12:25:58;;;;;;;;;;;;;;;;;;4932148;28;114086;-67
2023/03/08 12:28:24;;;;;;;;;;;;;;;;;;4916929;28;119783;-67
2023/03/08 12:30:50;;;;;;;;;;;;;;;;;;4916898;28;113655;-67
2023/03/08 12:33:16;;;;;;;;;;;;;;;;;;4903099;28;119833;-67
2023/03/08 12:35:43;;;;;;;;;;;;;;;;;;4901647;28;119521;-68
2023/03/08 12:38:09;;;;;;;;;;;;;;;;;;4920062;28;114028;-67
2023/03/08 12:40:35;;;;;;;;;;;;;;;;;;4919690;28;119461;-67
2023/03/08 12:43:02;;;;;;;;;;;;;;;;;;4918380;28;120019;-66
2023/03/08 12:45:29;;;;;;;;;;;;;;;;;;4921568;28;114195;-66
2023/03/08 12:47:56;;;;;;;;;;;;;;;;;;4920765;28;118744;-67
2023/03/08 12:50:22;;;;;;;;;;;;;;;;;;4920292;28;114105;-66
2023/03/08 12:52:48;;;;;;;;;;;;;;;;;;4918487;28;120072;-67
2023/03/08 12:55:15;;;;;;;;;;;;;;;;;;4918330;28;121110;-66
2023/03/08 12:57:41;;;;;;;;;;;;;;;;;;4919793;28;114673;-68
2023/03/08 13:00:09;;;;;;;;;;;;;;;;;;4919663;28;119048;-67
2023/03/08 13:02:35;;;;;;;;;;;;;;;;;;4916977;28;119820;-67
2023/03/08 13:05:02;;;;;;;;;;;;;;;;;;4915668;28;113726;-68
2023/03/08 13:07:28;;;;;;;;;;;;;;;;;;4917157;28;119662;-67
2023/03/08 13:09:54;;;;;;;;;;;;;;;;;;4916915;28;114386;-65
2023/03/08 13:12:20;;;;;;;;;;;;;;;;;;4912153;28;119009;-66
2023/03/08 13:14:47;;;;;;;;;;;;;;;;;;4919821;28;120371;-66
2023/03/08 13:17:13;;;;;;;;;;;;;;;;;;4917730;28;114039;-66
2023/03/08 13:19:39;;;;;;;;;;;;;;;;;;4902331;28;119461;-65
2023/03/08 13:22:05;;;;;;;;;;;;;;;;;;4918303;28;119972;-68
2023/03/08 13:24:31;;;;;;;;;;;;;;;;;;4919965;28;113946;-67
2023/03/08 13:26:58;;;;;;;;;;;;;;;;;;4919549;28;117431;-66
2023/03/08 13:29:24;;;;;;;;;;;;;;;;;;4922597;28;119604;-66
2023/03/08 13:31:50;;;;;;;;;;;;;;;;;;4919756;28;119172;-66
2023/03/08 13:34:16;;;;;;;;;;;;;;;;;;4918605;28;120114;-66
2023/03/08 13:36:42;;;;;;;;;;;;;;;;;;4917594;28;114832;-65
2023/03/08 13:39:09;;;;;;;;;;;;;;;;;;4919887;28;118940;-66
2023/03/08 13:41:35;;;;;;;;;;;;;;;;;;4918659;28;119674;-72
2023/03/08 13:44:02;;;;;;;;;;;;;;;;;;4918666;28;114006;-72
2023/03/08 13:46:28;;;;;;;;;;;;;;;;;;4909813;28;120329;-72
2023/03/08 13:48:54;;;;;;;;;;;;;;;;;;4914063;28;119967;-72
2023/03/08 13:51:20;;;;;;;;;;;;;;;;;;4919438;28;113825;-72
2023/03/08 13:53:46;;;;;;;;;;;;;;;;;;4901340;28;118148;-71
2023/03/08 13:56:13;;;;;;;;;;;;;;;;;;4919433;28;114113;-73
2023/03/08 13:58:39;;;;;;;;;;;;;;;;;;4919692;28;119131;-73
2023/03/08 14:01:05;;;;;;;;;;;;;;;;;;4914409;28;119240;-72
2023/03/08 14:03:31;;;;;;;;;;;;;;;;;;4911625;28;114070;-72
2023/03/08 14:05:58;;;;;;;;;;;;;;;;;;4901878;28;119247;-74
2023/03/08 14:08:24;;;;;;;;;;;;;;;;;;4907832;28;121066;-72
2023/03/08 14:10:50;;;;;;;;;;;;;;;;;;4931808;28;112694;-73
2023/03/08 14:13:16;;;;;;;;;;;;;;;;;;4939370;28;119428;-73
2023/03/08 14:15:43;;;;;;;;;;;;;;;;;;4922676;28;112513;-73
2023/03/08 14:18:09;;;;;;;;;;;;;;;;;;4918889;28;119270;-74
2023/03/08 14:20:36;;;;;;;;;;;;;;;;;;4910661;28;119819;-72
2023/03/08 14:23:02;;;;;;;;;;;;;;;;;;4906031;28;113538;-74
2023/03/08 14:25:28;;;;;;;;;;;;;;;;;;4921332;28;119816;-74
2023/03/08 14:27:54;;;;;;;;;;;;;;;;;;4903360;28;119694;-71
2023/03/08 14:30:21;;;;;;;;;;;;;;;;;;4921664;28;112794;-72
2023/03/08 14:32:47;;;;;;;;;;;;;;;;;;4918748;28;116645;-71
2023/03/08 14:35:13;;;;;;;;;;;;;;;;;;4920933;28;118326;-71
2023/03/08 14:37:41;;;;;;;;;;;;;;;;;;4906649;28;118874;-73
2023/03/08 14:40:07;;;;;;;;;;;;;;;;;;4906516;28;119774;-73
2023/03/08 14:42:34;;;;;;;;;;;;;;;;;;4920571;28;114008;-72
2023/03/08 14:45:00;;;;;;;;;;;;;;;;;;4921460;28;117603;-74
2023/03/08 14:47:26;;;;;;;;;;;;;;;;;;4919494;28;120403;-73
2023/03/08 14:49:52;;;;;;;;;;;;;;;;;;4922814;28;112647;-73
2023/03/08 14:52:19;;;;;;;;;;;;;;;;;;4920918;28;118793;-74
2023/03/08 14:54:45;;;;;;;;;;;;;;;;;;4923864;28;120261;-74
2023/03/08 14:57:11;;;;;;;;;;;;;;;;;;4920975;28;117752;-73
2023/03/08 14:59:37;;;;;;;;;;;;;;;;;;4889358;28;120431;-73
2023/03/08 15:02:04;;;;;;;;;;;;;;;;;;4921399;28;114084;-74
2023/03/08 15:04:30;;;;;;;;;;;;;;;;;;4921356;28;119138;-73
2023/03/08 15:06:56;;;;;;;;;;;;;;;;;;4916984;28;119758;-74
2023/03/08 15:09:23;;;;;;;;;;;;;;;;;;4901908;28;114134;-74
2023/03/08 15:11:49;;;;;;;;;;;;;;;;;;4911435;28;120021;-73
2023/03/08 15:14:15;;;;;;;;;;;;;;;;;;4925811;28;119041;-73
2023/03/08 15:16:41;;;;;;;;;;;;;;;;;;4922719;28;114765;-73
2023/03/08 15:19:09;;;;;;;;;;;;;;;;;;4903559;28;119785;-73
2023/03/08 15:21:35;;;;;;;;;;;;;;;;;;4920773;28;114155;-72
2023/03/08 15:24:01;;;;;;;;;;;;;;;;;;4903379;28;119725;-72
2023/03/08 15:26:27;;;;;;;;;;;;;;;;;;4919134;28;118555;-72
2023/03/08 15:28:54;;;;;;;;;;;;;;;;;;4920498;28;114075;-73
2023/03/08 15:31:20;;;;;;;;;;;;;;;;;;4921569;28;118870;-72
2023/03/08 15:33:47;;;;;;;;;;;;;;;;;;4921449;28;119535;-73
2023/03/08 15:36:13;;;;;;;;;;;;;;;;;;4903238;28;112271;-73
2023/03/08 15:38:39;;;;;;;;;;;;;;;;;;4922726;28;118927;-73
2023/03/08 15:41:05;;;;;;;;;;;;;;;;;;4920913;28;114444;-71
2023/03/08 15:43:32;;;;;;;;;;;;;;;;;;4919755;28;118658;-72
2023/03/08 15:45:58;;;;;;;;;;;;;;;;;;4912089;28;120986;-73
2023/03/08 15:48:24;;;;;;;;;;;;;;;;;;4920965;28;113915;-73
2023/03/08 15:50:50;;;;;;;;;;;;;;;;;;4904182;28;118980;-73
2023/03/08 15:53:16;;;;;;;;;;;;;;;;;;4891150;28;118385;-72
2023/03/08 15:55:59;;;;;;;;;;;;;;;;;;4902060;28;113927;-73
2023/03/08 15:58:25;;;;;;;;;;;;;;;;;;4920267;28;117866;-72
2023/03/08 16:00:52;;;;;;;;;;;;;;;;;;4923451;28;119598;-73
2023/03/08 16:03:24;;;;;;;;;;;;;;;;;;4920765;28;119034;-72
2023/03/08 16:05:51;;;;;;;;;;;;;;;;;;4901682;28;119669;-72
2023/03/08 16:08:17;;;;;;;;;;;;;;;;;;4920972;28;113814;-73
2023/03/08 16:10:43;;;;;;;;;;;;;;;;;;4920601;28;119736;-73
2023/03/08 16:13:10;;;;;;;;;;;;;;;;;;4919689;28;119807;-73
2023/03/08 16:15:36;;;;;;;;;;;;;;;;;;4920354;28;114440;-72
2023/03/08 16:18:02;;;;;;;;;;;;;;;;;;4920882;28;119063;-72
2023/03/08 16:20:29;;;;;;;;;;;;;;;;;;4919133;28;119888;-72
2023/03/08 16:22:55;;;;;;;;;;;;;;;;;;4922935;28;113965;-73
2023/03/08 16:25:21;;;;;;;;;;;;;;;;;;4919608;28;119827;-72
2023/03/08 16:27:48;;;;;;;;;;;;;;;;;;4920151;28;113988;-75
2023/03/08 16:30:14;;;;;;;;;;;;;;;;;;4920294;28;117986;-74
2023/03/08 16:32:40;;;;;;;;;;;;;;;;;;4919947;28;118071;-75